KUNU/UNU METAR and TAF weather

Enter ICAO airport designator
Station Type Date Time Source
KUNU METAR 2019/08/26 08:15 UTC NOAA

KUNU 260815Z AUTO 00000KT 10SM DZ SCT041 BKN050 OVC080 17/16 A2995 RMK AO2 T01650161 TSNO


Station Type Date Time Source
KUNU Decoded METAR 2019/08/26 08:15 UTC NOAA

Station name not available
Aug 26, 2019 - 04:15 AM EDT / 2019.08.26 0815 UTC
Wind: Calm:0
Visibility: 10 mile(s):0
Sky conditions: overcast
Weather: drizzle
Temperature: 61.7 F (16.5 C)
Dew Point: 61.0 F (16.1 C)
Relative Humidity: 97%
Pressure (altimeter): 29.95 in. Hg (1014 hPa)
ob: KUNU 260815Z AUTO 00000KT 10SM DZ SCT041 BKN050 OVC080 17/16 A2995 RMK AO2 T01650161 TSNO
cycle: 8

Station Type Date Time Source
KUNU TAF UTC NOAA

Error!

Example: see airport list